sensor_id;sensor_type;location;lat;lon;timestamp;pressure;altitude;pressure_sealevel;temperature;humidity
28312;BME280;15572;48.810;9.148;2022-12-18T00:02:29;99262.00;;;-9.78;100.00
28312;BME280;15572;48.810;9.148;2022-12-18T00:07:25;99281.75;;;-9.96;100.00
28312;BME280;15572;48.810;9.148;2022-12-18T00:12:23;99279.31;;;-10.03;100.00
28312;BME280;15572;48.810;9.148;2022-12-18T00:17:19;99284.00;;;-10.14;100.00
28312;BME280;15572;48.810;9.148;2022-12-18T00:22:16;99278.88;;;-10.16;100.00
28312;BME280;15572;48.810;9.148;2022-12-18T00:27:12;99276.06;;;-10.11;100.00
28312;BME280;15572;48.810;9.148;2022-12-18T00:32:10;99277.00;;;-10.14;100.00
28312;BME280;15572;48.810;9.148;2022-12-18T00:37:07;99283.41;;;-10.23;100.00
28312;BME280;15572;48.810;9.148;2022-12-18T00:42:03;99290.38;;;-10.21;100.00
28312;BME280;15572;48.810;9.148;2022-12-18T00:47:18;99286.03;;;-10.23;100.00
28312;BME280;15572;48.810;9.148;2022-12-18T00:52:15;99286.19;;;-10.29;100.00
28312;BME280;15572;48.810;9.148;2022-12-18T00:57:12;99281.81;;;-10.28;100.00
28312;BME280;15572;48.810;9.148;2022-12-18T01:02:08;99294.31;;;-10.38;100.00
28312;BME280;15572;48.810;9.148;2022-12-18T01:07:06;99286.50;;;-10.41;100.00
28312;BME280;15572;48.810;9.148;2022-12-18T01:12:03;99280.47;;;-10.43;100.00
28312;BME280;15572;48.810;9.148;2022-12-18T01:17:00;99282.97;;;-10.38;100.00
28312;BME280;15572;48.810;9.148;2022-12-18T01:21:58;99292.53;;;-10.37;100.00
28312;BME280;15572;48.810;9.148;2022-12-18T01:26:56;99298.72;;;-10.40;100.00
28312;BME280;15572;48.810;9.148;2022-12-18T01:31:55;99293.63;;;-10.46;100.00
28312;BME280;15572;48.810;9.148;2022-12-18T01:36:51;99289.53;;;-10.56;100.00
28312;BME280;15572;48.810;9.148;2022-12-18T01:41:48;99292.91;;;-10.51;100.00
28312;BME280;15572;48.810;9.148;2022-12-18T01:47:01;99299.75;;;-10.47;100.00
28312;BME280;15572;48.810;9.148;2022-12-18T01:51:58;99299.94;;;-10.53;100.00
28312;BME280;15572;48.810;9.148;2022-12-18T01:56:54;99300.97;;;-10.58;100.00
28312;BME280;15572;48.810;9.148;2022-12-18T02:01:51;99297.44;;;-10.57;100.00
28312;BME280;15572;48.810;9.148;2022-12-18T02:06:51;99282.34;;;-10.48;100.00
28312;BME280;15572;48.810;9.148;2022-12-18T02:11:55;99297.63;;;-10.31;100.00
28312;BME280;15572;48.810;9.148;2022-12-18T02:17:01;99286.59;;;-10.13;100.00
28312;BME280;15572;48.810;9.148;2022-12-18T02:22:10;99295.97;;;-10.04;100.00
28312;BME280;15572;48.810;9.148;2022-12-18T02:27:12;99297.31;;;-9.91;100.00
28312;BME280;15572;48.810;9.148;2022-12-18T02:32:12;99307.69;;;-9.87;100.00
28312;BME280;15572;48.810;9.148;2022-12-18T02:37:12;99306.47;;;-9.75;100.00
28312;BME280;15572;48.810;9.148;2022-12-18T02:42:12;99300.94;;;-9.66;100.00
28312;BME280;15572;48.810;9.148;2022-12-18T02:47:10;99309.63;;;-9.64;100.00
28312;BME280;15572;48.810;9.148;2022-12-18T02:52:14;99308.88;;;-9.67;100.00
28312;BME280;15572;48.810;9.148;2022-12-18T02:57:20;99321.06;;;-9.66;100.00
28312;BME280;15572;48.810;9.148;2022-12-18T03:02:25;99314.97;;;-9.67;100.00
28312;BME280;15572;48.810;9.148;2022-12-18T03:07:28;99306.91;;;-9.61;100.00
28312;BME280;15572;48.810;9.148;2022-12-18T03:12:34;99318.97;;;-9.55;100.00
28312;BME280;15572;48.810;9.148;2022-12-18T03:17:33;99322.31;;;-9.50;100.00
28312;BME280;15572;48.810;9.148;2022-12-18T03:22:30;99327.50;;;-9.47;100.00
28312;BME280;15572;48.810;9.148;2022-12-18T03:27:32;99320.53;;;-9.48;100.00
28312;BME280;15572;48.810;9.148;2022-12-18T03:32:31;99326.72;;;-9.51;100.00
28312;BME280;15572;48.810;9.148;2022-12-18T03:37:29;99336.47;;;-9.56;100.00
28312;BME280;15572;48.810;9.148;2022-12-18T03:42:29;99332.19;;;-9.58;100.00
28312;BME280;15572;48.810;9.148;2022-12-18T03:47:30;99323.66;;;-9.65;100.00
28312;BME280;15572;48.810;9.148;2022-12-18T03:52:30;99325.47;;;-9.67;100.00
28312;BME280;15572;48.810;9.148;2022-12-18T03:57:29;99337.03;;;-9.74;100.00
28312;BME280;15572;48.810;9.148;2022-12-18T04:02:30;99325.13;;;-9.86;100.00
28312;BME280;15572;48.810;9.148;2022-12-18T04:07:28;99320.38;;;-10.04;100.00
28312;BME280;15572;48.810;9.148;2022-12-18T04:12:25;99322.22;;;-10.06;100.00
28312;BME280;15572;48.810;9.148;2022-12-18T04:17:22;99323.69;;;-9.97;100.00
28312;BME280;15572;48.810;9.148;2022-12-18T04:22:20;99327.91;;;-9.92;100.00
28312;BME280;15572;48.810;9.148;2022-12-18T04:27:16;99328.72;;;-9.88;100.00
28312;BME280;15572;48.810;9.148;2022-12-18T04:32:13;99336.38;;;-9.82;100.00
28312;BME280;15572;48.810;9.148;2022-12-18T04:37:09;99348.56;;;-9.81;100.00
28312;BME280;15572;48.810;9.148;2022-12-18T04:42:07;99339.78;;;-9.78;100.00
28312;BME280;15572;48.810;9.148;2022-12-18T04:47:04;99336.13;;;-9.73;100.00
28312;BME280;15572;48.810;9.148;2022-12-18T04:52:00;99319.47;;;-9.72;100.00
28312;BME280;15572;48.810;9.148;2022-12-18T04:56:57;99310.66;;;-9.69;100.00
28312;BME280;15572;48.810;9.148;2022-12-18T05:01:55;99318.50;;;-9.68;100.00
28312;BME280;15572;48.810;9.148;2022-12-18T05:06:51;99321.97;;;-9.67;100.00
28312;BME280;15572;48.810;9.148;2022-12-18T05:11:48;99310.50;;;-9.63;100.00
28312;BME280;15572;48.810;9.148;2022-12-18T05:16:44;99320.94;;;-9.62;100.00
28312;BME280;15572;48.810;9.148;2022-12-18T05:21:42;99326.72;;;-9.51;100.00
28312;BME280;15572;48.810;9.148;2022-12-18T05:26:38;99339.91;;;-9.54;100.00
28312;BME280;15572;48.810;9.148;2022-12-18T05:31:35;99343.31;;;-9.50;100.00
28312;BME280;15572;48.810;9.148;2022-12-18T05:36:31;99351.16;;;-9.50;100.00
28312;BME280;15572;48.810;9.148;2022-12-18T05:41:29;99357.22;;;-9.47;100.00
28312;BME280;15572;48.810;9.148;2022-12-18T05:46:26;99351.31;;;-9.55;100.00
28312;BME280;15572;48.810;9.148;2022-12-18T05:51:23;99348.69;;;-9.55;100.00
28312;BME280;15572;48.810;9.148;2022-12-18T05:56:21;99327.72;;;-9.55;100.00
28312;BME280;15572;48.810;9.148;2022-12-18T06:01:21;99339.16;;;-9.57;100.00
28312;BME280;15572;48.810;9.148;2022-12-18T06:06:19;99337.66;;;-9.66;100.00
28312;BME280;15572;48.810;9.148;2022-12-18T06:11:18;99347.56;;;-9.75;100.00
28312;BME280;15572;48.810;9.148;2022-12-18T06:16:15;99352.19;;;-9.85;100.00
28312;BME280;15572;48.810;9.148;2022-12-18T06:21:13;99358.56;;;-9.94;100.00
28312;BME280;15572;48.810;9.148;2022-12-18T06:26:11;99353.78;;;-10.10;100.00
28312;BME280;15572;48.810;9.148;2022-12-18T06:31:08;99363.31;;;-10.08;100.00
28312;BME280;15572;48.810;9.148;2022-12-18T06:36:07;99358.16;;;-10.11;100.00
28312;BME280;15572;48.810;9.148;2022-12-18T06:41:07;99379.44;;;-10.21;100.00
28312;BME280;15572;48.810;9.148;2022-12-18T06:46:04;99376.09;;;-10.28;100.00
28312;BME280;15572;48.810;9.148;2022-12-18T06:51:03;99371.00;;;-10.33;100.00
28312;BME280;15572;48.810;9.148;2022-12-18T06:56:00;99364.88;;;-10.33;100.00
28312;BME280;15572;48.810;9.148;2022-12-18T07:01:00;99372.84;;;-10.36;100.00
28312;BME280;15572;48.810;9.148;2022-12-18T07:05:57;99383.50;;;-10.44;100.00
28312;BME280;15572;48.810;9.148;2022-12-18T07:10:54;99391.53;;;-10.51;100.00
28312;BME280;15572;48.810;9.148;2022-12-18T07:15:50;99399.59;;;-10.59;100.00
28312;BME280;15572;48.810;9.148;2022-12-18T07:20:48;99399.59;;;-10.59;100.00
28312;BME280;15572;48.810;9.148;2022-12-18T07:25:44;99408.97;;;-10.50;100.00
28312;BME280;15572;48.810;9.148;2022-12-18T07:30:41;99397.41;;;-10.42;100.00
28312;BME280;15572;48.810;9.148;2022-12-18T07:35:37;99404.16;;;-10.32;100.00
28312;BME280;15572;48.810;9.148;2022-12-18T07:40:35;99411.13;;;-10.32;100.00
28312;BME280;15572;48.810;9.148;2022-12-18T07:45:32;99415.78;;;-10.43;100.00
28312;BME280;15572;48.810;9.148;2022-12-18T07:50:28;99413.06;;;-10.40;100.00
28312;BME280;15572;48.810;9.148;2022-12-18T07:55:25;99412.81;;;-10.30;100.00
28312;BME280;15572;48.810;9.148;2022-12-18T08:00:23;99421.25;;;-10.18;100.00
28312;BME280;15572;48.810;9.148;2022-12-18T08:05:19;99421.78;;;-10.06;100.00
28312;BME280;15572;48.810;9.148;2022-12-18T08:10:16;99418.00;;;-9.96;100.00
28312;BME280;15572;48.810;9.148;2022-12-18T08:15:15;99406.34;;;-9.84;100.00
28312;BME280;15572;48.810;9.148;2022-12-18T08:20:19;99425.19;;;-9.71;100.00
28312;BME280;15572;48.810;9.148;2022-12-18T08:25:16;99398.94;;;-9.70;100.00
28312;BME280;15572;48.810;9.148;2022-12-18T08:30:15;99403.72;;;-9.53;100.00
28312;BME280;15572;48.810;9.148;2022-12-18T08:35:12;99417.25;;;-9.38;100.00
28312;BME280;15572;48.810;9.148;2022-12-18T08:40:10;99414.22;;;-9.24;100.00
28312;BME280;15572;48.810;9.148;2022-12-18T08:45:08;99417.50;;;-9.16;100.00
28312;BME280;15572;48.810;9.148;2022-12-18T08:50:05;99416.28;;;-9.04;100.00
28312;BME280;15572;48.810;9.148;2022-12-18T08:55:12;99414.13;;;-8.91;100.00
28312;BME280;15572;48.810;9.148;2022-12-18T09:00:10;99410.25;;;-8.80;100.00
28312;BME280;15572;48.810;9.148;2022-12-18T09:05:08;99393.22;;;-8.67;100.00
28312;BME280;15572;48.810;9.148;2022-12-18T09:10:06;99401.63;;;-8.56;100.00
28312;BME280;15572;48.810;9.148;2022-12-18T09:15:05;99398.56;;;-8.43;100.00
28312;BME280;15572;48.810;9.148;2022-12-18T09:20:01;99403.31;;;-8.28;100.00
28312;BME280;15572;48.810;9.148;2022-12-18T09:24:58;99398.44;;;-8.14;100.00
28312;BME280;15572;48.810;9.148;2022-12-18T09:29:54;99382.09;;;-7.97;100.00
28312;BME280;15572;48.810;9.148;2022-12-18T09:34:52;99387.69;;;-7.82;100.00
28312;BME280;15572;48.810;9.148;2022-12-18T09:39:49;99380.19;;;-7.69;100.00
28312;BME280;15572;48.810;9.148;2022-12-18T09:44:49;99380.56;;;-7.55;100.00
28312;BME280;15572;48.810;9.148;2022-12-18T09:49:49;99381.91;;;-7.43;100.00
28312;BME280;15572;48.810;9.148;2022-12-18T09:54:51;99367.28;;;-7.29;100.00
28312;BME280;15572;48.810;9.148;2022-12-18T09:59:53;99364.94;;;-7.13;100.00
28312;BME280;15572;48.810;9.148;2022-12-18T10:05:01;99369.66;;;-6.99;100.00
28312;BME280;15572;48.810;9.148;2022-12-18T10:10:04;99371.53;;;-6.79;100.00
28312;BME280;15572;48.810;9.148;2022-12-18T10:15:07;99369.91;;;-6.62;100.00
28312;BME280;15572;48.810;9.148;2022-12-18T10:20:12;99380.78;;;-6.48;100.00
28312;BME280;15572;48.810;9.148;2022-12-18T10:25:20;99383.84;;;-6.36;100.00
28312;BME280;15572;48.810;9.148;2022-12-18T10:30:20;99385.81;;;-6.21;100.00
28312;BME280;15572;48.810;9.148;2022-12-18T10:35:20;99370.28;;;-6.07;100.00
28312;BME280;15572;48.810;9.148;2022-12-18T10:40:19;99379.97;;;-5.87;100.00
28312;BME280;15572;48.810;9.148;2022-12-18T10:45:16;99376.34;;;-5.66;100.00
28312;BME280;15572;48.810;9.148;2022-12-18T10:50:20;99369.47;;;-5.50;100.00
28312;BME280;15572;48.810;9.148;2022-12-18T10:55:21;99376.16;;;-5.23;100.00
28312;BME280;15572;48.810;9.148;2022-12-18T11:00:23;99374.22;;;-5.00;100.00
28312;BME280;15572;48.810;9.148;2022-12-18T11:05:27;99370.34;;;-4.75;100.00
28312;BME280;15572;48.810;9.148;2022-12-18T11:10:29;99361.50;;;-4.55;100.00
28312;BME280;15572;48.810;9.148;2022-12-18T11:15:29;99355.38;;;-4.38;100.00
28312;BME280;15572;48.810;9.148;2022-12-18T11:20:31;99355.16;;;-4.34;100.00
28312;BME280;15572;48.810;9.148;2022-12-18T11:25:30;99339.75;;;-4.26;100.00
28312;BME280;15572;48.810;9.148;2022-12-18T11:30:29;99344.56;;;-4.16;100.00
28312;BME280;15572;48.810;9.148;2022-12-18T11:35:35;99336.06;;;-4.06;100.00
28312;BME280;15572;48.810;9.148;2022-12-18T11:40:36;99337.78;;;-3.88;100.00
28312;BME280;15572;48.810;9.148;2022-12-18T11:45:40;99320.97;;;-3.69;100.00
28312;BME280;15572;48.810;9.148;2022-12-18T11:50:45;99319.50;;;-3.42;100.00
28312;BME280;15572;48.810;9.148;2022-12-18T12:01:07;99314.06;;;-2.92;100.00
28312;BME280;15572;48.810;9.148;2022-12-18T12:06:16;99292.44;;;-2.84;100.00
28312;BME280;15572;48.810;9.148;2022-12-18T12:11:23;99295.41;;;-2.75;100.00
28312;BME280;15572;48.810;9.148;2022-12-18T12:16:25;99286.19;;;-2.68;100.00
28312;BME280;15572;48.810;9.148;2022-12-18T12:21:31;99294.47;;;-2.58;100.00
28312;BME280;15572;48.810;9.148;2022-12-18T12:26:38;99297.25;;;-2.45;100.00
28312;BME280;15572;48.810;9.148;2022-12-18T12:31:54;99286.19;;;-2.38;100.00
28312;BME280;15572;48.810;9.148;2022-12-18T12:37:05;99297.66;;;-2.37;100.00
28312;BME280;15572;48.810;9.148;2022-12-18T12:42:13;99292.00;;;-2.31;100.00
28312;BME280;15572;48.810;9.148;2022-12-18T12:47:42;99294.97;;;-2.22;100.00
28312;BME280;15572;48.810;9.148;2022-12-18T12:52:43;99305.03;;;-2.13;100.00
28312;BME280;15572;48.810;9.148;2022-12-18T12:57:46;99308.47;;;-2.10;100.00
28312;BME280;15572;48.810;9.148;2022-12-18T13:02:47;99309.63;;;-2.00;100.00
28312;BME280;15572;48.810;9.148;2022-12-18T13:07:51;99312.03;;;-1.82;100.00
28312;BME280;15572;48.810;9.148;2022-12-18T13:12:58;99314.03;;;-1.71;100.00
28312;BME280;15572;48.810;9.148;2022-12-18T13:18:04;99316.50;;;-1.68;100.00
28312;BME280;15572;48.810;9.148;2022-12-18T13:23:19;99299.63;;;-1.53;99.48
28312;BME280;15572;48.810;9.148;2022-12-18T13:28:50;99304.66;;;-1.48;98.62
28312;BME280;15572;48.810;9.148;2022-12-18T13:33:49;99294.78;;;-1.46;99.31
28312;BME280;15572;48.810;9.148;2022-12-18T13:38:46;99293.00;;;-1.46;99.03
28312;BME280;15572;48.810;9.148;2022-12-18T13:43:43;99287.47;;;-1.57;100.00
28312;BME280;15572;48.810;9.148;2022-12-18T13:48:51;99281.81;;;-1.51;99.33
28312;BME280;15572;48.810;9.148;2022-12-18T13:53:50;99293.28;;;-1.50;98.19
28312;BME280;15572;48.810;9.148;2022-12-18T13:59:03;99284.81;;;-1.57;97.52
28312;BME280;15572;48.810;9.148;2022-12-18T14:04:11;99284.63;;;-1.68;96.92
28312;BME280;15572;48.810;9.148;2022-12-18T14:09:13;99284.50;;;-1.81;97.46
28312;BME280;15572;48.810;9.148;2022-12-18T14:14:13;99291.88;;;-2.00;99.12
28312;BME280;15572;48.810;9.148;2022-12-18T14:19:14;99285.22;;;-2.07;99.56
28312;BME280;15572;48.810;9.148;2022-12-18T14:24:14;99278.19;;;-2.22;100.00
28312;BME280;15572;48.810;9.148;2022-12-18T14:29:20;99297.38;;;-2.33;100.00
28312;BME280;15572;48.810;9.148;2022-12-18T14:34:19;99293.56;;;-2.43;100.00
28312;BME280;15572;48.810;9.148;2022-12-18T14:39:22;99297.69;;;-2.53;100.00
28312;BME280;15572;48.810;9.148;2022-12-18T14:44:20;99297.47;;;-2.64;100.00
28312;BME280;15572;48.810;9.148;2022-12-18T14:49:21;99292.75;;;-2.75;100.00
28312;BME280;15572;48.810;9.148;2022-12-18T14:54:20;99299.69;;;-2.88;100.00
28312;BME280;15572;48.810;9.148;2022-12-18T14:59:20;99304.72;;;-2.99;100.00
28312;BME280;15572;48.810;9.148;2022-12-18T15:04:26;99296.69;;;-3.13;100.00
28312;BME280;15572;48.810;9.148;2022-12-18T15:09:25;99301.72;;;-3.24;100.00
28312;BME280;15572;48.810;9.148;2022-12-18T15:14:30;99297.03;;;-3.35;100.00
28312;BME280;15572;48.810;9.148;2022-12-18T15:19:34;99294.09;;;-3.46;100.00
28312;BME280;15572;48.810;9.148;2022-12-18T15:24:32;99290.00;;;-3.52;100.00
28312;BME280;15572;48.810;9.148;2022-12-18T15:29:29;99280.75;;;-3.60;100.00
28312;BME280;15572;48.810;9.148;2022-12-18T15:34:26;99281.34;;;-3.71;100.00
28312;BME280;15572;48.810;9.148;2022-12-18T15:39:24;99290.53;;;-3.78;100.00
28312;BME280;15572;48.810;9.148;2022-12-18T15:44:23;99293.50;;;-3.84;100.00
28312;BME280;15572;48.810;9.148;2022-12-18T15:49:20;99280.69;;;-3.92;100.00
28312;BME280;15572;48.810;9.148;2022-12-18T15:54:17;99282.78;;;-3.98;100.00
28312;BME280;15572;48.810;9.148;2022-12-18T15:59:35;99288.38;;;-4.04;100.00
28312;BME280;15572;48.810;9.148;2022-12-18T16:04:31;99292.44;;;-4.14;100.00
28312;BME280;15572;48.810;9.148;2022-12-18T16:09:27;99294.53;;;-4.21;100.00
28312;BME280;15572;48.810;9.148;2022-12-18T16:14:26;99300.13;;;-4.27;100.00
28312;BME280;15572;48.810;9.148;2022-12-18T16:19:24;99296.66;;;-4.28;100.00
28312;BME280;15572;48.810;9.148;2022-12-18T16:24:22;99291.50;;;-4.31;100.00
28312;BME280;15572;48.810;9.148;2022-12-18T16:29:20;99281.88;;;-4.32;100.00
28312;BME280;15572;48.810;9.148;2022-12-18T16:34:21;99285.13;;;-4.27;100.00
28312;BME280;15572;48.810;9.148;2022-12-18T16:39:20;99286.91;;;-4.27;100.00
28312;BME280;15572;48.810;9.148;2022-12-18T16:44:17;99281.72;;;-4.29;100.00
28312;BME280;15572;48.810;9.148;2022-12-18T16:49:14;99273.88;;;-4.30;100.00
28312;BME280;15572;48.810;9.148;2022-12-18T16:54:11;99276.50;;;-4.30;100.00
28312;BME280;15572;48.810;9.148;2022-12-18T16:59:10;99279.94;;;-4.28;100.00
28312;BME280;15572;48.810;9.148;2022-12-18T17:04:08;99276.28;;;-4.26;100.00
28312;BME280;15572;48.810;9.148;2022-12-18T17:09:06;99263.91;;;-4.25;100.00
28312;BME280;15572;48.810;9.148;2022-12-18T17:14:05;99261.81;;;-4.18;100.00
28312;BME280;15572;48.810;9.148;2022-12-18T17:19:03;99262.41;;;-4.13;100.00
28312;BME280;15572;48.810;9.148;2022-12-18T17:24:00;99249.88;;;-4.10;100.00
28312;BME280;15572;48.810;9.148;2022-12-18T17:28:57;99250.66;;;-4.08;100.00
28312;BME280;15572;48.810;9.148;2022-12-18T17:33:54;99246.06;;;-4.04;100.00
28312;BME280;15572;48.810;9.148;2022-12-18T17:38:54;99238.72;;;-3.99;100.00
28312;BME280;15572;48.810;9.148;2022-12-18T17:43:51;99244.81;;;-3.97;100.00
28312;BME280;15572;48.810;9.148;2022-12-18T17:48:48;99251.72;;;-3.95;100.00
28312;BME280;15572;48.810;9.148;2022-12-18T17:53:44;99251.66;;;-3.93;100.00
28312;BME280;15572;48.810;9.148;2022-12-18T17:58:43;99251.56;;;-3.92;100.00
28312;BME280;15572;48.810;9.148;2022-12-18T18:03:39;99247.13;;;-3.91;100.00
28312;BME280;15572;48.810;9.148;2022-12-18T18:08:36;99247.13;;;-3.91;100.00
28312;BME280;15572;48.810;9.148;2022-12-18T18:13:32;99242.53;;;-3.88;100.00
28312;BME280;15572;48.810;9.148;2022-12-18T18:18:48;99231.09;;;-3.88;100.00
28312;BME280;15572;48.810;9.148;2022-12-18T18:23:44;99234.41;;;-3.85;100.00
28312;BME280;15572;48.810;9.148;2022-12-18T18:28:40;99235.06;;;-3.79;100.00
28312;BME280;15572;48.810;9.148;2022-12-18T18:33:37;99228.72;;;-3.77;100.00
28312;BME280;15572;48.810;9.148;2022-12-18T18:38:35;99211.84;;;-3.74;100.00
28312;BME280;15572;48.810;9.148;2022-12-18T18:43:31;99205.69;;;-3.75;100.00
28312;BME280;15572;48.810;9.148;2022-12-18T18:48:31;99213.53;;;-3.73;100.00
28312;BME280;15572;48.810;9.148;2022-12-18T18:53:28;99203.09;;;-3.76;100.00
28312;BME280;15572;48.810;9.148;2022-12-18T18:58:27;99218.59;;;-3.69;100.00
28312;BME280;15572;48.810;9.148;2022-12-18T19:03:24;99208.75;;;-3.67;100.00
28312;BME280;15572;48.810;9.148;2022-12-18T19:08:22;99215.75;;;-3.66;100.00
28312;BME280;15572;48.810;9.148;2022-12-18T19:13:19;99200.81;;;-3.67;100.00
28312;BME280;15572;48.810;9.148;2022-12-18T19:18:22;99203.47;;;-3.67;100.00
28312;BME280;15572;48.810;9.148;2022-12-18T19:23:18;99194.59;;;-3.66;100.00
28312;BME280;15572;48.810;9.148;2022-12-18T19:28:15;99183.91;;;-3.64;100.00
28312;BME280;15572;48.810;9.148;2022-12-18T19:33:12;99183.75;;;-3.61;100.00
28312;BME280;15572;48.810;9.148;2022-12-18T19:38:10;99177.25;;;-3.56;100.00
28312;BME280;15572;48.810;9.148;2022-12-18T19:43:06;99171.69;;;-3.51;100.00
28312;BME280;15572;48.810;9.148;2022-12-18T19:48:03;99163.34;;;-3.44;100.00
28312;BME280;15572;48.810;9.148;2022-12-18T19:53:00;99162.22;;;-3.40;100.00
28312;BME280;15572;48.810;9.148;2022-12-18T19:57:58;99149.50;;;-3.33;100.00
28312;BME280;15572;48.810;9.148;2022-12-18T20:02:54;99150.84;;;-3.26;100.00
28312;BME280;15572;48.810;9.148;2022-12-18T20:07:51;99152.38;;;-3.22;100.00
28312;BME280;15572;48.810;9.148;2022-12-18T20:12:47;99144.31;;;-3.20;100.00
28312;BME280;15572;48.810;9.148;2022-12-18T20:17:45;99141.69;;;-3.20;100.00
28312;BME280;15572;48.810;9.148;2022-12-18T20:22:42;99128.44;;;-3.20;100.00
28312;BME280;15572;48.810;9.148;2022-12-18T20:27:38;99118.34;;;-3.14;100.00
28312;BME280;15572;48.810;9.148;2022-12-18T20:32:35;99113.72;;;-3.10;100.00
28312;BME280;15572;48.810;9.148;2022-12-18T20:37:32;99103.03;;;-3.09;100.00
28312;BME280;15572;48.810;9.148;2022-12-18T20:42:29;99107.38;;;-3.08;100.00
28312;BME280;15572;48.810;9.148;2022-12-18T20:47:25;99137.75;;;-3.13;100.00
28312;BME280;15572;48.810;9.148;2022-12-18T20:52:22;99138.00;;;-3.18;100.00
28312;BME280;15572;48.810;9.148;2022-12-18T20:57:20;99135.63;;;-3.22;100.00
28312;BME280;15572;48.810;9.148;2022-12-18T21:02:17;99108.38;;;-3.24;100.00
28312;BME280;15572;48.810;9.148;2022-12-18T21:07:13;99089.06;;;-3.26;100.00
28312;BME280;15572;48.810;9.148;2022-12-18T21:12:11;99121.09;;;-3.31;100.00
28312;BME280;15572;48.810;9.148;2022-12-18T21:17:29;99140.41;;;-3.29;100.00
28312;BME280;15572;48.810;9.148;2022-12-18T21:22:26;99130.75;;;-3.30;100.00
28312;BME280;15572;48.810;9.148;2022-12-18T21:27:22;99100.03;;;-3.32;100.00
28312;BME280;15572;48.810;9.148;2022-12-18T21:32:19;99126.59;;;-3.34;100.00
28312;BME280;15572;48.810;9.148;2022-12-18T21:37:17;99134.59;;;-3.35;100.00
28312;BME280;15572;48.810;9.148;2022-12-18T21:42:13;99137.97;;;-3.32;100.00
28312;BME280;15572;48.810;9.148;2022-12-18T21:47:27;99135.19;;;-3.30;100.00
28312;BME280;15572;48.810;9.148;2022-12-18T21:52:25;99101.53;;;-3.28;100.00
28312;BME280;15572;48.810;9.148;2022-12-18T21:57:22;99098.03;;;-3.29;100.00
28312;BME280;15572;48.810;9.148;2022-12-18T22:02:20;99109.50;;;-3.28;100.00
28312;BME280;15572;48.810;9.148;2022-12-18T22:07:16;99105.13;;;-3.29;100.00
28312;BME280;15572;48.810;9.148;2022-12-18T22:12:14;99092.06;;;-3.32;100.00
28312;BME280;15572;48.810;9.148;2022-12-18T22:17:29;99086.94;;;-3.35;100.00
28312;BME280;15572;48.810;9.148;2022-12-18T22:22:25;99090.63;;;-3.38;100.00
28312;BME280;15572;48.810;9.148;2022-12-18T22:27:23;99088.84;;;-3.37;100.00
28312;BME280;15572;48.810;9.148;2022-12-18T22:32:20;99091.22;;;-3.33;100.00
28312;BME280;15572;48.810;9.148;2022-12-18T22:37:16;99091.81;;;-3.28;100.00
28312;BME280;15572;48.810;9.148;2022-12-18T22:42:13;99089.06;;;-3.26;100.00
28312;BME280;15572;48.810;9.148;2022-12-18T22:47:10;99082.66;;;-3.22;100.00
28312;BME280;15572;48.810;9.148;2022-12-18T22:52:08;99086.03;;;-3.20;100.00
28312;BME280;15572;48.810;9.148;2022-12-18T22:57:05;99104.50;;;-3.19;100.00
28312;BME280;15572;48.810;9.148;2022-12-18T23:02:01;99109.72;;;-3.17;100.00
28312;BME280;15572;48.810;9.148;2022-12-18T23:06:59;99110.50;;;-3.15;100.00
28312;BME280;15572;48.810;9.148;2022-12-18T23:11:56;99110.38;;;-3.14;100.00
28312;BME280;15572;48.810;9.148;2022-12-18T23:16:52;99100.66;;;-3.13;100.00
28312;BME280;15572;48.810;9.148;2022-12-18T23:21:49;99107.56;;;-3.11;100.00
28312;BME280;15572;48.810;9.148;2022-12-18T23:26:46;99098.59;;;-3.08;100.00
28312;BME280;15572;48.810;9.148;2022-12-18T23:31:43;99098.41;;;-3.05;100.00
28312;BME280;15572;48.810;9.148;2022-12-18T23:36:39;99097.38;;;-3.03;100.00
28312;BME280;15572;48.810;9.148;2022-12-18T23:41:36;99097.09;;;-2.98;100.00
28312;BME280;15572;48.810;9.148;2022-12-18T23:46:34;99088.13;;;-2.95;100.00
28312;BME280;15572;48.810;9.148;2022-12-18T23:51:31;99090.69;;;-2.94;100.00
28312;BME280;15572;48.810;9.148;2022-12-18T23:56:29;99102.22;;;-2.95;100.00
